sensor_id;sensor_type;location;lat;lon;timestamp;P1;durP1;ratioP1;P2;durP2;ratioP2
64029;SDS011;50277;52.064;4.492;2023-11-21T00:01:37;9.48;;;3.40;;
64029;SDS011;50277;52.064;4.492;2023-11-21T00:04:03;11.52;;;4.15;;
64029;SDS011;50277;52.064;4.492;2023-11-21T00:06:28;20.80;;;4.32;;
64029;SDS011;50277;52.064;4.492;2023-11-21T00:08:56;13.80;;;3.70;;
64029;SDS011;50277;52.064;4.492;2023-11-21T00:11:21;17.15;;;4.68;;
64029;SDS011;50277;52.064;4.492;2023-11-21T00:13:47;13.98;;;4.38;;
64029;SDS011;50277;52.064;4.492;2023-11-21T00:16:13;13.95;;;4.30;;
64029;SDS011;50277;52.064;4.492;2023-11-21T00:18:38;16.48;;;4.97;;
64029;SDS011;50277;52.064;4.492;2023-11-21T00:21:04;10.55;;;4.13;;
64029;SDS011;50277;52.064;4.492;2023-11-21T00:23:30;16.67;;;4.95;;
64029;SDS011;50277;52.064;4.492;2023-11-21T00:25:55;10.25;;;4.72;;
64029;SDS011;50277;52.064;4.492;2023-11-21T00:28:20;10.90;;;3.45;;
64029;SDS011;50277;52.064;4.492;2023-11-21T00:30:47;15.68;;;3.90;;
64029;SDS011;50277;52.064;4.492;2023-11-21T00:33:12;18.13;;;4.55;;
64029;SDS011;50277;52.064;4.492;2023-11-21T00:35:38;16.20;;;4.78;;
64029;SDS011;50277;52.064;4.492;2023-11-21T00:38:04;16.83;;;4.07;;
64029;SDS011;50277;52.064;4.492;2023-11-21T00:40:29;15.63;;;3.90;;
64029;SDS011;50277;52.064;4.492;2023-11-21T00:42:54;14.10;;;3.90;;
64029;SDS011;50277;52.064;4.492;2023-11-21T00:45:21;17.17;;;3.95;;
64029;SDS011;50277;52.064;4.492;2023-11-21T00:47:47;16.02;;;4.20;;
64029;SDS011;50277;52.064;4.492;2023-11-21T00:50:13;12.27;;;3.50;;
64029;SDS011;50277;52.064;4.492;2023-11-21T00:52:38;17.50;;;3.85;;
64029;SDS011;50277;52.064;4.492;2023-11-21T00:55:04;18.02;;;5.00;;
64029;SDS011;50277;52.064;4.492;2023-11-21T00:57:32;16.40;;;3.40;;
64029;SDS011;50277;52.064;4.492;2023-11-21T00:59:57;19.98;;;3.70;;
64029;SDS011;50277;52.064;4.492;2023-11-21T01:02:22;16.17;;;3.40;;
64029;SDS011;50277;52.064;4.492;2023-11-21T01:04:48;9.35;;;3.20;;
64029;SDS011;50277;52.064;4.492;2023-11-21T01:07:13;10.57;;;3.58;;
64029;SDS011;50277;52.064;4.492;2023-11-21T01:09:39;7.53;;;3.05;;
64029;SDS011;50277;52.064;4.492;2023-11-21T01:12:04;9.57;;;3.85;;
64029;SDS011;50277;52.064;4.492;2023-11-21T01:14:30;10.07;;;3.70;;
64029;SDS011;50277;52.064;4.492;2023-11-21T01:16:55;21.52;;;6.32;;
64029;SDS011;50277;52.064;4.492;2023-11-21T01:19:21;14.45;;;4.60;;
64029;SDS011;50277;52.064;4.492;2023-11-21T01:21:46;14.77;;;4.72;;
64029;SDS011;50277;52.064;4.492;2023-11-21T01:24:12;13.45;;;4.38;;
64029;SDS011;50277;52.064;4.492;2023-11-21T01:26:37;15.23;;;5.03;;
64029;SDS011;50277;52.064;4.492;2023-11-21T01:29:02;10.63;;;4.07;;
64029;SDS011;50277;52.064;4.492;2023-11-21T01:31:28;12.45;;;5.18;;
64029;SDS011;50277;52.064;4.492;2023-11-21T01:33:55;8.98;;;3.90;;
64029;SDS011;50277;52.064;4.492;2023-11-21T01:36:21;11.38;;;4.35;;
64029;SDS011;50277;52.064;4.492;2023-11-21T01:38:46;14.40;;;3.90;;
64029;SDS011;50277;52.064;4.492;2023-11-21T01:41:13;17.90;;;4.18;;
64029;SDS011;50277;52.064;4.492;2023-11-21T01:43:38;10.68;;;3.70;;
64029;SDS011;50277;52.064;4.492;2023-11-21T01:46:04;9.15;;;3.50;;
64029;SDS011;50277;52.064;4.492;2023-11-21T01:48:31;13.52;;;3.80;;
64029;SDS011;50277;52.064;4.492;2023-11-21T01:50:56;10.68;;;4.07;;
64029;SDS011;50277;52.064;4.492;2023-11-21T01:53:23;9.15;;;3.15;;
64029;SDS011;50277;52.064;4.492;2023-11-21T01:55:50;7.60;;;2.95;;
64029;SDS011;50277;52.064;4.492;2023-11-21T01:58:16;6.68;;;2.78;;
64029;SDS011;50277;52.064;4.492;2023-11-21T02:00:41;8.30;;;3.08;;
64029;SDS011;50277;52.064;4.492;2023-11-21T02:03:09;11.20;;;3.75;;
64029;SDS011;50277;52.064;4.492;2023-11-21T02:05:35;12.50;;;3.20;;
64029;SDS011;50277;52.064;4.492;2023-11-21T02:08:01;11.07;;;3.53;;
64029;SDS011;50277;52.064;4.492;2023-11-21T02:10:27;12.57;;;4.38;;
64029;SDS011;50277;52.064;4.492;2023-11-21T02:12:54;14.43;;;4.18;;
64029;SDS011;50277;52.064;4.492;2023-11-21T02:15:21;11.43;;;4.15;;
64029;SDS011;50277;52.064;4.492;2023-11-21T02:17:47;15.60;;;4.43;;
64029;SDS011;50277;52.064;4.492;2023-11-21T02:20:16;9.10;;;3.92;;
64029;SDS011;50277;52.064;4.492;2023-11-21T02:22:43;15.65;;;5.75;;
64029;SDS011;50277;52.064;4.492;2023-11-21T02:25:14;10.23;;;4.53;;
64029;SDS011;50277;52.064;4.492;2023-11-21T02:27:40;11.02;;;4.43;;
64029;SDS011;50277;52.064;4.492;2023-11-21T02:30:05;19.63;;;4.60;;
64029;SDS011;50277;52.064;4.492;2023-11-21T02:32:32;13.82;;;4.22;;
64029;SDS011;50277;52.064;4.492;2023-11-21T02:34:58;12.70;;;4.97;;
64029;SDS011;50277;52.064;4.492;2023-11-21T02:37:26;8.20;;;3.70;;
64029;SDS011;50277;52.064;4.492;2023-11-21T02:39:52;9.68;;;4.22;;
64029;SDS011;50277;52.064;4.492;2023-11-21T02:42:17;11.60;;;4.05;;
64029;SDS011;50277;52.064;4.492;2023-11-21T02:44:43;13.82;;;4.30;;
64029;SDS011;50277;52.064;4.492;2023-11-21T02:47:09;6.80;;;4.07;;
64029;SDS011;50277;52.064;4.492;2023-11-21T02:49:34;10.68;;;4.43;;
64029;SDS011;50277;52.064;4.492;2023-11-21T02:52:00;9.73;;;3.70;;
64029;SDS011;50277;52.064;4.492;2023-11-21T02:54:26;6.93;;;3.67;;
64029;SDS011;50277;52.064;4.492;2023-11-21T02:56:52;11.85;;;4.05;;
64029;SDS011;50277;52.064;4.492;2023-11-21T02:59:18;12.82;;;4.57;;
64029;SDS011;50277;52.064;4.492;2023-11-21T03:01:44;12.30;;;4.47;;
64029;SDS011;50277;52.064;4.492;2023-11-21T03:04:10;6.95;;;3.53;;
64029;SDS011;50277;52.064;4.492;2023-11-21T03:06:35;9.57;;;4.40;;
64029;SDS011;50277;52.064;4.492;2023-11-21T03:09:01;9.88;;;4.45;;
64029;SDS011;50277;52.064;4.492;2023-11-21T03:11:27;11.02;;;4.82;;
64029;SDS011;50277;52.064;4.492;2023-11-21T03:13:52;11.95;;;4.97;;
64029;SDS011;50277;52.064;4.492;2023-11-21T03:16:18;11.25;;;4.88;;
64029;SDS011;50277;52.064;4.492;2023-11-21T03:18:44;14.07;;;5.30;;
64029;SDS011;50277;52.064;4.492;2023-11-21T03:21:09;9.98;;;5.30;;
64029;SDS011;50277;52.064;4.492;2023-11-21T03:23:35;11.13;;;5.88;;
64029;SDS011;50277;52.064;4.492;2023-11-21T03:26:01;13.23;;;5.82;;
64029;SDS011;50277;52.064;4.492;2023-11-21T03:28:26;9.40;;;5.28;;
64029;SDS011;50277;52.064;4.492;2023-11-21T03:30:52;10.15;;;5.00;;
64029;SDS011;50277;52.064;4.492;2023-11-21T03:33:18;9.65;;;5.15;;
64029;SDS011;50277;52.064;4.492;2023-11-21T03:35:43;10.30;;;5.53;;
64029;SDS011;50277;52.064;4.492;2023-11-21T03:38:10;10.90;;;5.82;;
64029;SDS011;50277;52.064;4.492;2023-11-21T03:40:35;12.25;;;6.90;;
64029;SDS011;50277;52.064;4.492;2023-11-21T03:43:01;16.15;;;6.10;;
64029;SDS011;50277;52.064;4.492;2023-11-21T03:45:26;9.80;;;5.88;;
64029;SDS011;50277;52.064;4.492;2023-11-21T03:47:52;9.95;;;5.15;;
64029;SDS011;50277;52.064;4.492;2023-11-21T03:50:17;17.02;;;5.88;;
64029;SDS011;50277;52.064;4.492;2023-11-21T03:52:42;10.25;;;5.55;;
64029;SDS011;50277;52.064;4.492;2023-11-21T03:55:08;8.70;;;5.07;;
64029;SDS011;50277;52.064;4.492;2023-11-21T03:57:33;10.15;;;5.20;;
64029;SDS011;50277;52.064;4.492;2023-11-21T03:59:59;6.93;;;4.00;;
64029;SDS011;50277;52.064;4.492;2023-11-21T04:02:24;9.55;;;4.80;;
64029;SDS011;50277;52.064;4.492;2023-11-21T04:07:18;4.43;;;3.83;;
64029;SDS011;50277;52.064;4.492;2023-11-21T04:09:44;7.07;;;4.05;;
64029;SDS011;50277;52.064;4.492;2023-11-21T04:12:09;6.50;;;3.67;;
64029;SDS011;50277;52.064;4.492;2023-11-21T04:14:34;6.25;;;4.15;;
64029;SDS011;50277;52.064;4.492;2023-11-21T04:17:00;6.43;;;3.97;;
64029;SDS011;50277;52.064;4.492;2023-11-21T04:19:25;6.97;;;4.28;;
64029;SDS011;50277;52.064;4.492;2023-11-21T04:21:51;11.05;;;3.50;;
64029;SDS011;50277;52.064;4.492;2023-11-21T04:24:16;9.95;;;4.55;;
64029;SDS011;50277;52.064;4.492;2023-11-21T04:26:41;8.45;;;4.60;;
64029;SDS011;50277;52.064;4.492;2023-11-21T04:29:07;9.52;;;5.22;;
64029;SDS011;50277;52.064;4.492;2023-11-21T04:31:32;5.22;;;4.32;;
64029;SDS011;50277;52.064;4.492;2023-11-21T04:33:58;9.48;;;4.40;;
64029;SDS011;50277;52.064;4.492;2023-11-21T04:36:23;8.40;;;4.85;;
64029;SDS011;50277;52.064;4.492;2023-11-21T04:38:49;6.00;;;4.18;;
64029;SDS011;50277;52.064;4.492;2023-11-21T04:41:14;6.60;;;3.70;;
64029;SDS011;50277;52.064;4.492;2023-11-21T04:43:39;5.03;;;3.85;;
64029;SDS011;50277;52.064;4.492;2023-11-21T04:46:05;7.88;;;4.07;;
64029;SDS011;50277;52.064;4.492;2023-11-21T04:48:31;8.18;;;4.30;;
64029;SDS011;50277;52.064;4.492;2023-11-21T04:50:57;6.20;;;3.90;;
64029;SDS011;50277;52.064;4.492;2023-11-21T04:53:22;6.20;;;3.72;;
64029;SDS011;50277;52.064;4.492;2023-11-21T04:55:48;3.72;;;3.25;;
64029;SDS011;50277;52.064;4.492;2023-11-21T04:58:13;5.63;;;3.28;;
64029;SDS011;50277;52.064;4.492;2023-11-21T05:00:39;4.47;;;3.63;;
64029;SDS011;50277;52.064;4.492;2023-11-21T05:03:04;5.82;;;3.88;;
64029;SDS011;50277;52.064;4.492;2023-11-21T05:05:32;4.43;;;3.55;;
64029;SDS011;50277;52.064;4.492;2023-11-21T05:07:58;14.18;;;8.98;;
64029;SDS011;50277;52.064;4.492;2023-11-21T05:10:24;5.03;;;4.05;;
64029;SDS011;50277;52.064;4.492;2023-11-21T05:12:49;4.85;;;4.03;;
64029;SDS011;50277;52.064;4.492;2023-11-21T05:15:15;7.43;;;3.40;;
64029;SDS011;50277;52.064;4.492;2023-11-21T05:17:42;6.05;;;3.47;;
64029;SDS011;50277;52.064;4.492;2023-11-21T05:20:09;4.07;;;3.55;;
64029;SDS011;50277;52.064;4.492;2023-11-21T05:22:36;6.43;;;4.75;;
64029;SDS011;50277;52.064;4.492;2023-11-21T05:25:02;8.60;;;3.70;;
64029;SDS011;50277;52.064;4.492;2023-11-21T05:27:29;7.78;;;5.53;;
64029;SDS011;50277;52.064;4.492;2023-11-21T05:29:55;7.40;;;4.20;;
64029;SDS011;50277;52.064;4.492;2023-11-21T05:32:21;8.20;;;5.50;;
64029;SDS011;50277;52.064;4.492;2023-11-21T05:34:47;7.22;;;5.28;;
64029;SDS011;50277;52.064;4.492;2023-11-21T05:37:13;10.25;;;7.05;;
64029;SDS011;50277;52.064;4.492;2023-11-21T05:39:38;6.28;;;4.00;;
64029;SDS011;50277;52.064;4.492;2023-11-21T05:42:03;7.65;;;4.10;;
64029;SDS011;50277;52.064;4.492;2023-11-21T05:44:34;5.10;;;3.95;;
64029;SDS011;50277;52.064;4.492;2023-11-21T05:47:00;5.85;;;3.60;;
64029;SDS011;50277;52.064;4.492;2023-11-21T05:49:25;5.43;;;3.33;;
64029;SDS011;50277;52.064;4.492;2023-11-21T05:51:52;6.30;;;3.55;;
64029;SDS011;50277;52.064;4.492;2023-11-21T05:54:19;6.70;;;3.50;;
64029;SDS011;50277;52.064;4.492;2023-11-21T05:56:44;4.97;;;3.47;;
64029;SDS011;50277;52.064;4.492;2023-11-21T05:59:10;4.60;;;3.30;;
64029;SDS011;50277;52.064;4.492;2023-11-21T06:01:35;4.65;;;3.88;;
64029;SDS011;50277;52.064;4.492;2023-11-21T06:04:03;3.75;;;3.38;;
64029;SDS011;50277;52.064;4.492;2023-11-21T06:06:29;7.15;;;3.45;;
64029;SDS011;50277;52.064;4.492;2023-11-21T06:08:56;7.70;;;3.28;;
64029;SDS011;50277;52.064;4.492;2023-11-21T06:11:21;4.03;;;3.42;;
64029;SDS011;50277;52.064;4.492;2023-11-21T06:13:46;5.00;;;3.63;;
64029;SDS011;50277;52.064;4.492;2023-11-21T06:16:13;6.38;;;3.53;;
64029;SDS011;50277;52.064;4.492;2023-11-21T06:18:41;4.20;;;3.80;;
64029;SDS011;50277;52.064;4.492;2023-11-21T06:21:09;6.93;;;3.25;;
64029;SDS011;50277;52.064;4.492;2023-11-21T06:23:34;4.70;;;3.50;;
64029;SDS011;50277;52.064;4.492;2023-11-21T06:26:00;5.97;;;3.30;;
64029;SDS011;50277;52.064;4.492;2023-11-21T06:28:26;6.68;;;4.30;;
64029;SDS011;50277;52.064;4.492;2023-11-21T06:30:51;7.22;;;3.33;;
64029;SDS011;50277;52.064;4.492;2023-11-21T06:33:18;5.72;;;3.25;;
64029;SDS011;50277;52.064;4.492;2023-11-21T06:35:43;5.40;;;3.25;;
64029;SDS011;50277;52.064;4.492;2023-11-21T06:38:09;5.43;;;2.90;;
64029;SDS011;50277;52.064;4.492;2023-11-21T06:40:35;4.07;;;2.97;;
64029;SDS011;50277;52.064;4.492;2023-11-21T06:43:01;7.07;;;2.75;;
64029;SDS011;50277;52.064;4.492;2023-11-21T06:45:26;4.72;;;2.75;;
64029;SDS011;50277;52.064;4.492;2023-11-21T06:47:51;5.57;;;2.60;;
64029;SDS011;50277;52.064;4.492;2023-11-21T06:50:17;5.25;;;2.58;;
64029;SDS011;50277;52.064;4.492;2023-11-21T06:52:42;3.22;;;2.13;;
64029;SDS011;50277;52.064;4.492;2023-11-21T06:55:08;4.13;;;2.67;;
64029;SDS011;50277;52.064;4.492;2023-11-21T06:57:34;5.55;;;2.83;;
64029;SDS011;50277;52.064;4.492;2023-11-21T07:00:00;5.53;;;2.78;;
64029;SDS011;50277;52.064;4.492;2023-11-21T07:02:25;7.05;;;2.72;;
64029;SDS011;50277;52.064;4.492;2023-11-21T07:04:51;6.30;;;2.92;;
64029;SDS011;50277;52.064;4.492;2023-11-21T07:07:16;6.95;;;3.25;;
64029;SDS011;50277;52.064;4.492;2023-11-21T07:09:43;8.38;;;3.65;;
64029;SDS011;50277;52.064;4.492;2023-11-21T07:12:08;8.40;;;2.65;;
64029;SDS011;50277;52.064;4.492;2023-11-21T07:14:34;5.38;;;2.80;;
64029;SDS011;50277;52.064;4.492;2023-11-21T07:16:59;6.57;;;3.10;;
64029;SDS011;50277;52.064;4.492;2023-11-21T07:19:25;9.10;;;4.00;;
64029;SDS011;50277;52.064;4.492;2023-11-21T07:21:50;6.18;;;3.13;;
64029;SDS011;50277;52.064;4.492;2023-11-21T07:24:16;5.80;;;3.05;;
64029;SDS011;50277;52.064;4.492;2023-11-21T07:26:41;11.98;;;3.80;;
64029;SDS011;50277;52.064;4.492;2023-11-21T07:29:06;9.25;;;3.55;;
64029;SDS011;50277;52.064;4.492;2023-11-21T07:31:33;10.63;;;3.35;;
64029;SDS011;50277;52.064;4.492;2023-11-21T07:33:59;6.55;;;2.60;;
64029;SDS011;50277;52.064;4.492;2023-11-21T07:36:25;3.90;;;2.28;;
64029;SDS011;50277;52.064;4.492;2023-11-21T07:38:50;8.48;;;2.72;;
64029;SDS011;50277;52.064;4.492;2023-11-21T07:41:17;10.23;;;3.70;;
64029;SDS011;50277;52.064;4.492;2023-11-21T07:43:43;6.70;;;2.92;;
64029;SDS011;50277;52.064;4.492;2023-11-21T07:46:10;7.72;;;2.90;;
64029;SDS011;50277;52.064;4.492;2023-11-21T07:48:37;5.47;;;2.70;;
64029;SDS011;50277;52.064;4.492;2023-11-21T07:51:03;7.78;;;2.92;;
64029;SDS011;50277;52.064;4.492;2023-11-21T07:53:28;7.80;;;3.15;;
64029;SDS011;50277;52.064;4.492;2023-11-21T07:55:55;5.78;;;3.35;;
64029;SDS011;50277;52.064;4.492;2023-11-21T07:58:21;5.75;;;2.78;;
64029;SDS011;50277;52.064;4.492;2023-11-21T08:00:46;7.97;;;3.40;;
64029;SDS011;50277;52.064;4.492;2023-11-21T08:03:15;6.15;;;3.63;;
64029;SDS011;50277;52.064;4.492;2023-11-21T08:05:40;5.75;;;3.30;;
64029;SDS011;50277;52.064;4.492;2023-11-21T08:08:06;7.82;;;3.42;;
64029;SDS011;50277;52.064;4.492;2023-11-21T08:10:32;6.50;;;2.88;;
64029;SDS011;50277;52.064;4.492;2023-11-21T08:12:57;6.05;;;2.70;;
64029;SDS011;50277;52.064;4.492;2023-11-21T08:15:23;6.20;;;3.33;;
64029;SDS011;50277;52.064;4.492;2023-11-21T08:17:48;8.60;;;4.10;;
64029;SDS011;50277;52.064;4.492;2023-11-21T08:20:14;11.02;;;3.72;;
64029;SDS011;50277;52.064;4.492;2023-11-21T08:22:44;9.48;;;3.80;;
64029;SDS011;50277;52.064;4.492;2023-11-21T08:25:09;11.93;;;3.72;;
64029;SDS011;50277;52.064;4.492;2023-11-21T08:27:35;10.57;;;3.50;;
64029;SDS011;50277;52.064;4.492;2023-11-21T08:30:02;8.88;;;2.95;;
64029;SDS011;50277;52.064;4.492;2023-11-21T08:32:28;9.02;;;3.20;;
64029;SDS011;50277;52.064;4.492;2023-11-21T08:34:55;12.88;;;3.70;;
64029;SDS011;50277;52.064;4.492;2023-11-21T08:37:20;7.32;;;3.20;;
64029;SDS011;50277;52.064;4.492;2023-11-21T08:39:47;4.07;;;2.75;;
64029;SDS011;50277;52.064;4.492;2023-11-21T08:42:13;9.15;;;3.30;;
64029;SDS011;50277;52.064;4.492;2023-11-21T08:44:39;6.20;;;2.85;;
64029;SDS011;50277;52.064;4.492;2023-11-21T08:47:05;6.38;;;2.90;;
64029;SDS011;50277;52.064;4.492;2023-11-21T08:49:30;5.28;;;2.78;;
64029;SDS011;50277;52.064;4.492;2023-11-21T08:51:55;4.40;;;2.58;;
64029;SDS011;50277;52.064;4.492;2023-11-21T08:54:22;5.45;;;2.88;;
64029;SDS011;50277;52.064;4.492;2023-11-21T08:56:48;3.63;;;2.72;;
64029;SDS011;50277;52.064;4.492;2023-11-21T08:59:13;3.72;;;2.60;;
64029;SDS011;50277;52.064;4.492;2023-11-21T09:01:39;5.85;;;3.15;;
64029;SDS011;50277;52.064;4.492;2023-11-21T09:04:05;4.57;;;3.15;;
64029;SDS011;50277;52.064;4.492;2023-11-21T09:06:30;4.75;;;2.88;;
64029;SDS011;50277;52.064;4.492;2023-11-21T09:08:56;6.70;;;3.05;;
64029;SDS011;50277;52.064;4.492;2023-11-21T09:11:21;3.78;;;2.90;;
64029;SDS011;50277;52.064;4.492;2023-11-21T09:13:46;5.38;;;3.15;;
64029;SDS011;50277;52.064;4.492;2023-11-21T09:16:12;4.55;;;3.38;;
64029;SDS011;50277;52.064;4.492;2023-11-21T09:18:39;6.53;;;2.58;;
64029;SDS011;50277;52.064;4.492;2023-11-21T09:21:04;4.55;;;3.30;;
64029;SDS011;50277;52.064;4.492;2023-11-21T09:23:30;4.82;;;3.70;;
64029;SDS011;50277;52.064;4.492;2023-11-21T09:25:55;5.10;;;3.08;;
64029;SDS011;50277;52.064;4.492;2023-11-21T09:28:22;7.85;;;4.00;;
64029;SDS011;50277;52.064;4.492;2023-11-21T09:30:47;6.65;;;3.72;;
64029;SDS011;50277;52.064;4.492;2023-11-21T09:33:15;5.40;;;3.72;;
64029;SDS011;50277;52.064;4.492;2023-11-21T09:35:40;4.63;;;3.97;;
64029;SDS011;50277;52.064;4.492;2023-11-21T09:38:05;6.45;;;4.40;;
64029;SDS011;50277;52.064;4.492;2023-11-21T09:40:35;5.78;;;5.00;;
64029;SDS011;50277;52.064;4.492;2023-11-21T09:43:02;4.88;;;4.32;;
64029;SDS011;50277;52.064;4.492;2023-11-21T09:45:41;7.55;;;4.90;;
64029;SDS011;50277;52.064;4.492;2023-11-21T09:48:10;5.38;;;4.85;;
64029;SDS011;50277;52.064;4.492;2023-11-21T09:50:36;6.15;;;4.82;;
64029;SDS011;50277;52.064;4.492;2023-11-21T09:55:32;9.18;;;5.68;;
64029;SDS011;50277;52.064;4.492;2023-11-21T09:58:01;9.63;;;5.95;;
64029;SDS011;50277;52.064;4.492;2023-11-21T10:00:28;9.27;;;6.68;;
64029;SDS011;50277;52.064;4.492;2023-11-21T10:02:55;7.37;;;5.77;;
64029;SDS011;50277;52.064;4.492;2023-11-21T10:05:23;7.53;;;5.90;;
64029;SDS011;50277;52.064;4.492;2023-11-21T10:07:49;10.23;;;5.63;;
64029;SDS011;50277;52.064;4.492;2023-11-21T10:10:16;10.23;;;6.30;;
64029;SDS011;50277;52.064;4.492;2023-11-21T10:12:44;6.28;;;5.40;;
64029;SDS011;50277;52.064;4.492;2023-11-21T10:15:14;6.65;;;4.75;;
64029;SDS011;50277;52.064;4.492;2023-11-21T10:17:41;9.18;;;5.97;;
64029;SDS011;50277;52.064;4.492;2023-11-21T10:20:13;9.57;;;5.65;;
64029;SDS011;50277;52.064;4.492;2023-11-21T10:22:41;8.18;;;5.53;;
64029;SDS011;50277;52.064;4.492;2023-11-21T10:25:08;5.30;;;4.80;;
64029;SDS011;50277;52.064;4.492;2023-11-21T10:27:34;6.93;;;5.38;;
64029;SDS011;50277;52.064;4.492;2023-11-21T10:30:01;5.80;;;5.07;;
64029;SDS011;50277;52.064;4.492;2023-11-21T10:32:28;5.57;;;5.07;;
64029;SDS011;50277;52.064;4.492;2023-11-21T10:34:57;7.05;;;4.93;;
64029;SDS011;50277;52.064;4.492;2023-11-21T10:37:22;5.22;;;4.72;;
64029;SDS011;50277;52.064;4.492;2023-11-21T10:39:48;4.70;;;4.15;;
64029;SDS011;50277;52.064;4.492;2023-11-21T10:42:15;7.05;;;4.75;;
64029;SDS011;50277;52.064;4.492;2023-11-21T10:44:43;5.40;;;4.90;;
64029;SDS011;50277;52.064;4.492;2023-11-21T10:47:10;5.68;;;4.93;;
64029;SDS011;50277;52.064;4.492;2023-11-21T10:49:36;5.03;;;4.50;;
64029;SDS011;50277;52.064;4.492;2023-11-21T10:52:05;6.78;;;5.60;;
64029;SDS011;50277;52.064;4.492;2023-11-21T10:54:30;5.63;;;4.82;;
64029;SDS011;50277;52.064;4.492;2023-11-21T10:56:56;7.20;;;5.10;;
64029;SDS011;50277;52.064;4.492;2023-11-21T10:59:23;9.23;;;5.93;;
64029;SDS011;50277;52.064;4.492;2023-11-21T11:01:53;5.25;;;4.72;;
64029;SDS011;50277;52.064;4.492;2023-11-21T11:04:19;9.93;;;5.80;;
64029;SDS011;50277;52.064;4.492;2023-11-21T11:06:54;5.80;;;5.20;;
64029;SDS011;50277;52.064;4.492;2023-11-21T11:09:21;6.25;;;5.15;;
64029;SDS011;50277;52.064;4.492;2023-11-21T11:11:47;6.75;;;4.97;;
64029;SDS011;50277;52.064;4.492;2023-11-21T11:14:13;7.50;;;6.10;;
64029;SDS011;50277;52.064;4.492;2023-11-21T11:16:39;9.77;;;6.35;;
64029;SDS011;50277;52.064;4.492;2023-11-21T11:19:06;8.15;;;6.28;;
64029;SDS011;50277;52.064;4.492;2023-11-21T11:21:37;7.03;;;6.32;;
64029;SDS011;50277;52.064;4.492;2023-11-21T11:24:26;8.32;;;6.65;;
64029;SDS011;50277;52.064;4.492;2023-11-21T11:32:53;10.02;;;7.65;;
64029;SDS011;50277;52.064;4.492;2023-11-21T11:38:01;8.38;;;6.97;;
64029;SDS011;50277;52.064;4.492;2023-11-21T11:40:39;8.68;;;6.43;;
64029;SDS011;50277;52.064;4.492;2023-11-21T11:43:11;6.72;;;5.82;;
64029;SDS011;50277;52.064;4.492;2023-11-21T11:45:37;8.05;;;5.63;;
64029;SDS011;50277;52.064;4.492;2023-11-21T11:48:06;6.45;;;5.80;;
64029;SDS011;50277;52.064;4.492;2023-11-21T11:50:32;8.68;;;6.20;;
64029;SDS011;50277;52.064;4.492;2023-11-21T11:53:12;8.40;;;6.15;;
64029;SDS011;50277;52.064;4.492;2023-11-21T11:55:38;8.45;;;6.20;;
64029;SDS011;50277;52.064;4.492;2023-11-21T11:58:04;7.35;;;5.97;;
64029;SDS011;50277;52.064;4.492;2023-11-21T12:03:02;5.90;;;5.30;;
64029;SDS011;50277;52.064;4.492;2023-11-21T12:05:30;8.80;;;6.00;;
64029;SDS011;50277;52.064;4.492;2023-11-21T12:10:25;7.32;;;6.35;;
64029;SDS011;50277;52.064;4.492;2023-11-21T12:12:54;6.90;;;6.18;;
64029;SDS011;50277;52.064;4.492;2023-11-21T12:15:20;8.00;;;6.13;;
64029;SDS011;50277;52.064;4.492;2023-11-21T12:17:46;8.35;;;6.60;;
64029;SDS011;50277;52.064;4.492;2023-11-21T12:20:14;8.50;;;6.75;;
64029;SDS011;50277;52.064;4.492;2023-11-21T12:22:42;6.28;;;5.68;;
64029;SDS011;50277;52.064;4.492;2023-11-21T12:25:08;9.25;;;6.45;;
64029;SDS011;50277;52.064;4.492;2023-11-21T12:27:33;7.20;;;6.50;;
64029;SDS011;50277;52.064;4.492;2023-11-21T12:30:00;7.18;;;6.47;;
64029;SDS011;50277;52.064;4.492;2023-11-21T12:32:25;7.45;;;6.55;;
64029;SDS011;50277;52.064;4.492;2023-11-21T12:34:51;8.55;;;6.63;;
64029;SDS011;50277;52.064;4.492;2023-11-21T12:37:17;10.48;;;6.63;;
64029;SDS011;50277;52.064;4.492;2023-11-21T12:39:43;7.07;;;6.35;;
64029;SDS011;50277;52.064;4.492;2023-11-21T12:42:08;7.15;;;6.45;;
64029;SDS011;50277;52.064;4.492;2023-11-21T12:44:35;6.45;;;5.72;;
64029;SDS011;50277;52.064;4.492;2023-11-21T12:47:01;7.38;;;5.70;;
64029;SDS011;50277;52.064;4.492;2023-11-21T12:49:27;6.47;;;5.82;;
64029;SDS011;50277;52.064;4.492;2023-11-21T12:51:53;5.68;;;5.10;;
64029;SDS011;50277;52.064;4.492;2023-11-21T12:54:19;6.85;;;5.60;;
64029;SDS011;50277;52.064;4.492;2023-11-21T12:56:45;5.57;;;5.07;;
64029;SDS011;50277;52.064;4.492;2023-11-21T12:59:12;7.00;;;5.63;;
64029;SDS011;50277;52.064;4.492;2023-11-21T13:01:41;6.10;;;5.32;;
64029;SDS011;50277;52.064;4.492;2023-11-21T13:04:07;8.38;;;6.00;;
64029;SDS011;50277;52.064;4.492;2023-11-21T13:06:32;6.40;;;5.80;;
64029;SDS011;50277;52.064;4.492;2023-11-21T13:09:03;6.25;;;5.65;;
64029;SDS011;50277;52.064;4.492;2023-11-21T13:11:30;5.85;;;4.95;;
64029;SDS011;50277;52.064;4.492;2023-11-21T13:13:59;7.18;;;5.47;;
64029;SDS011;50277;52.064;4.492;2023-11-21T13:16:25;7.63;;;5.63;;
64029;SDS011;50277;52.064;4.492;2023-11-21T13:18:51;5.60;;;5.05;;
64029;SDS011;50277;52.064;4.492;2023-11-21T13:21:16;6.43;;;5.78;;
64029;SDS011;50277;52.064;4.492;2023-11-21T13:23:42;9.27;;;5.60;;
64029;SDS011;50277;52.064;4.492;2023-11-21T13:28:37;6.05;;;5.32;;
64029;SDS011;50277;52.064;4.492;2023-11-21T13:31:03;6.50;;;5.78;;
64029;SDS011;50277;52.064;4.492;2023-11-21T13:33:35;6.68;;;5.15;;
64029;SDS011;50277;52.064;4.492;2023-11-21T13:36:06;10.07;;;5.82;;
64029;SDS011;50277;52.064;4.492;2023-11-21T13:38:34;7.55;;;6.38;;
64029;SDS011;50277;52.064;4.492;2023-11-21T13:41:02;6.32;;;5.40;;
64029;SDS011;50277;52.064;4.492;2023-11-21T13:43:28;8.73;;;5.90;;
64029;SDS011;50277;52.064;4.492;2023-11-21T13:45:54;6.88;;;5.15;;
64029;SDS011;50277;52.064;4.492;2023-11-21T13:48:37;9.10;;;5.88;;
64029;SDS011;50277;52.064;4.492;2023-11-21T13:51:07;7.07;;;6.38;;
64029;SDS011;50277;52.064;4.492;2023-11-21T13:53:42;7.10;;;5.82;;
64029;SDS011;50277;52.064;4.492;2023-11-21T13:56:09;7.10;;;6.15;;
64029;SDS011;50277;52.064;4.492;2023-11-21T13:58:34;8.18;;;6.57;;
64029;SDS011;50277;52.064;4.492;2023-11-21T14:01:17;8.13;;;5.97;;
64029;SDS011;50277;52.064;4.492;2023-11-21T14:03:58;7.47;;;6.10;;
64029;SDS011;50277;52.064;4.492;2023-11-21T14:06:48;6.03;;;4.95;;
64029;SDS011;50277;52.064;4.492;2023-11-21T14:09:15;4.95;;;4.45;;
64029;SDS011;50277;52.064;4.492;2023-11-21T14:11:57;6.20;;;5.60;;
64029;SDS011;50277;52.064;4.492;2023-11-21T14:14:23;8.38;;;5.75;;
64029;SDS011;50277;52.064;4.492;2023-11-21T14:16:51;7.23;;;6.27;;
64029;SDS011;50277;52.064;4.492;2023-11-21T14:19:17;7.85;;;6.00;;
64029;SDS011;50277;52.064;4.492;2023-11-21T14:21:43;9.35;;;7.78;;
64029;SDS011;50277;52.064;4.492;2023-11-21T14:24:10;9.68;;;8.25;;
64029;SDS011;50277;52.064;4.492;2023-11-21T14:26:42;11.15;;;9.25;;
64029;SDS011;50277;52.064;4.492;2023-11-21T14:29:08;10.75;;;9.02;;
64029;SDS011;50277;52.064;4.492;2023-11-21T14:31:34;11.00;;;9.65;;
64029;SDS011;50277;52.064;4.492;2023-11-21T14:34:00;12.82;;;10.00;;
64029;SDS011;50277;52.064;4.492;2023-11-21T14:36:29;12.57;;;9.77;;
64029;SDS011;50277;52.064;4.492;2023-11-21T14:38:55;11.02;;;8.88;;
64029;SDS011;50277;52.064;4.492;2023-11-21T14:41:20;13.80;;;9.75;;
64029;SDS011;50277;52.064;4.492;2023-11-21T14:43:45;12.90;;;9.35;;
64029;SDS011;50277;52.064;4.492;2023-11-21T14:46:14;15.00;;;9.07;;
64029;SDS011;50277;52.064;4.492;2023-11-21T14:48:42;11.20;;;8.50;;
64029;SDS011;50277;52.064;4.492;2023-11-21T14:51:11;10.10;;;8.20;;
64029;SDS011;50277;52.064;4.492;2023-11-21T14:56:09;9.10;;;7.72;;
64029;SDS011;50277;52.064;4.492;2023-11-21T14:58:35;10.27;;;7.80;;
64029;SDS011;50277;52.064;4.492;2023-11-21T15:01:02;10.57;;;7.10;;
64029;SDS011;50277;52.064;4.492;2023-11-21T15:03:29;7.65;;;6.78;;